CheckWX is a tool to help pilots better visualize weather data.  It is not intended as a substitute for an official pre-flight weather briefing.

20:13:07 UTC

K2LS METAR
Galliano Heliport
Galliano, Louisiana, USA
Current

18 mins ago

K2LS 231955Z AUTO 15006KT 10SM CLR 23/15 A3011 RMK AO2
Observed
Apr-23 @ 19:55 UTC
Wind
  • 150° at 6 KTS
Visibility
10 SM
Flight Rules
VFR
Cloud Levels
  • Clear skies
Temperature
23°C / 73°F
Dewpoint
15°C / 59°F
Humidity
61%
Altimeter
30.11" Hg
Pressure
1019.62 hPa
Previous

38 mins ago

K2LS 231935Z AUTO 17006KT 10SM CLR 23/16 A3012 RMK AO2
Observed
Apr-23 @ 19:35 UTC
Wind
  • 170° at 6 KTS
Visibility
10 SM
Flight Rules
VFR
Cloud Levels
  • Clear skies
Temperature
23°C / 73°F
Dewpoint
16°C / 61°F
Humidity
65%
Altimeter
30.12" Hg
Pressure
1020.02 hPa
Previous

58 mins ago

K2LS 231915Z AUTO VRB05KT 10SM FEW029 23/15 A3013 RMK AO2
Observed
Apr-23 @ 19:15 UTC
Wind
  • Variable at 5 KTS
Visibility
10 SM
Flight Rules
VFR
Cloud Levels
  • Few at 2,900' AGL
Temperature
23°C / 73°F
Dewpoint
15°C / 59°F
Humidity
61%
Altimeter
30.13" Hg
Pressure
1020.32 hPa